sensor_id;sensor_type;location;lat;lon;timestamp;temperature;humidity
16198;DHT22;8206;51.440;6.914;2023-02-24T00:02:26;5.30;1.00
16198;DHT22;8206;51.440;6.914;2023-02-24T00:04:53;5.20;22.80
16198;DHT22;8206;51.440;6.914;2023-02-24T00:07:20;5.20;99.90
16198;DHT22;8206;51.440;6.914;2023-02-24T00:09:47;5.20;1.00
16198;DHT22;8206;51.440;6.914;2023-02-24T00:12:16;5.10;1.00
16198;DHT22;8206;51.440;6.914;2023-02-24T00:14:46;5.00;99.90
16198;DHT22;8206;51.440;6.914;2023-02-24T00:17:13;4.90;10.10
16198;DHT22;8206;51.440;6.914;2023-02-24T00:19:41;4.70;1.00
16198;DHT22;8206;51.440;6.914;2023-02-24T00:22:09;4.60;99.90
16198;DHT22;8206;51.440;6.914;2023-02-24T00:24:36;4.50;99.90
16198;DHT22;8206;51.440;6.914;2023-02-24T00:27:04;4.50;99.90
16198;DHT22;8206;51.440;6.914;2023-02-24T00:29:33;4.30;1.00
16198;DHT22;8206;51.440;6.914;2023-02-24T00:32:02;4.30;1.00
16198;DHT22;8206;51.440;6.914;2023-02-24T00:34:32;4.20;1.00
16198;DHT22;8206;51.440;6.914;2023-02-24T00:37:01;4.20;1.00
16198;DHT22;8206;51.440;6.914;2023-02-24T00:39:31;4.20;1.00
16198;DHT22;8206;51.440;6.914;2023-02-24T00:41:59;4.10;1.00
16198;DHT22;8206;51.440;6.914;2023-02-24T00:44:30;4.00;1.00
16198;DHT22;8206;51.440;6.914;2023-02-24T00:46:58;4.00;99.90
16198;DHT22;8206;51.440;6.914;2023-02-24T00:49:25;3.90;99.90
16198;DHT22;8206;51.440;6.914;2023-02-24T00:51:54;3.90;99.90
16198;DHT22;8206;51.440;6.914;2023-02-24T00:54:22;3.90;99.90
16198;DHT22;8206;51.440;6.914;2023-02-24T00:56:53;3.90;99.90
16198;DHT22;8206;51.440;6.914;2023-02-24T00:59:20;3.90;99.90
16198;DHT22;8206;51.440;6.914;2023-02-24T01:01:48;3.90;99.90
16198;DHT22;8206;51.440;6.914;2023-02-24T01:04:16;3.80;99.90
16198;DHT22;8206;51.440;6.914;2023-02-24T01:06:46;3.90;99.90
16198;DHT22;8206;51.440;6.914;2023-02-24T01:09:15;4.00;99.90
16198;DHT22;8206;51.440;6.914;2023-02-24T01:11:45;4.10;99.90
16198;DHT22;8206;51.440;6.914;2023-02-24T01:14:42;4.20;99.90
16198;DHT22;8206;51.440;6.914;2023-02-24T01:17:09;4.20;99.90
16198;DHT22;8206;51.440;6.914;2023-02-24T01:19:38;4.30;99.90
16198;DHT22;8206;51.440;6.914;2023-02-24T01:22:07;4.30;92.50
16198;DHT22;8206;51.440;6.914;2023-02-24T01:24:36;4.30;99.90
16198;DHT22;8206;51.440;6.914;2023-02-24T01:27:04;4.30;1.00
16198;DHT22;8206;51.440;6.914;2023-02-24T01:29:31;4.30;83.40
16198;DHT22;8206;51.440;6.914;2023-02-24T01:32:03;4.30;1.00
16198;DHT22;8206;51.440;6.914;2023-02-24T01:34:30;4.20;1.00
16198;DHT22;8206;51.440;6.914;2023-02-24T01:36:59;4.30;1.00
16198;DHT22;8206;51.440;6.914;2023-02-24T01:39:26;4.30;99.90
16198;DHT22;8206;51.440;6.914;2023-02-24T01:41:53;4.30;1.00
16198;DHT22;8206;51.440;6.914;2023-02-24T01:47:25;4.30;1.00
16198;DHT22;8206;51.440;6.914;2023-02-24T01:49:55;4.40;1.00
16198;DHT22;8206;51.440;6.914;2023-02-24T01:52:25;4.40;1.00
16198;DHT22;8206;51.440;6.914;2023-02-24T01:54:56;4.40;99.90
16198;DHT22;8206;51.440;6.914;2023-02-24T01:57:28;4.40;1.00
16198;DHT22;8206;51.440;6.914;2023-02-24T01:59:56;4.30;99.90
16198;DHT22;8206;51.440;6.914;2023-02-24T02:02:38;4.30;99.90
16198;DHT22;8206;51.440;6.914;2023-02-24T02:05:08;4.20;1.00
16198;DHT22;8206;51.440;6.914;2023-02-24T02:07:37;4.20;1.00
16198;DHT22;8206;51.440;6.914;2023-02-24T02:10:07;4.20;1.00
16198;DHT22;8206;51.440;6.914;2023-02-24T02:12:37;4.20;99.90
16198;DHT22;8206;51.440;6.914;2023-02-24T02:15:10;4.10;1.00
16198;DHT22;8206;51.440;6.914;2023-02-24T02:17:44;4.00;1.00
16198;DHT22;8206;51.440;6.914;2023-02-24T02:20:47;3.90;1.00
16198;DHT22;8206;51.440;6.914;2023-02-24T02:23:44;3.80;1.00
16198;DHT22;8206;51.440;6.914;2023-02-24T02:26:35;3.70;1.00
16198;DHT22;8206;51.440;6.914;2023-02-24T02:29:30;3.70;1.00
16198;DHT22;8206;51.440;6.914;2023-02-24T02:35:06;3.60;1.00
16198;DHT22;8206;51.440;6.914;2023-02-24T02:37:40;3.60;1.00
16198;DHT22;8206;51.440;6.914;2023-02-24T02:40:14;3.60;99.90
16198;DHT22;8206;51.440;6.914;2023-02-24T02:42:48;3.60;1.00
16198;DHT22;8206;51.440;6.914;2023-02-24T02:45:24;3.70;99.90
16198;DHT22;8206;51.440;6.914;2023-02-24T02:47:56;3.70;99.90
16198;DHT22;8206;51.440;6.914;2023-02-24T02:50:28;3.70;99.90
16198;DHT22;8206;51.440;6.914;2023-02-24T02:52:59;3.80;99.90
16198;DHT22;8206;51.440;6.914;2023-02-24T02:55:34;3.80;11.50
16198;DHT22;8206;51.440;6.914;2023-02-24T02:58:03;3.70;99.90
16198;DHT22;8206;51.440;6.914;2023-02-24T03:00:37;3.70;99.90
16198;DHT22;8206;51.440;6.914;2023-02-24T03:03:09;3.70;99.90
16198;DHT22;8206;51.440;6.914;2023-02-24T03:05:42;3.60;99.90
16198;DHT22;8206;51.440;6.914;2023-02-24T03:08:13;3.60;1.00
16198;DHT22;8206;51.440;6.914;2023-02-24T03:10:42;3.70;99.90
16198;DHT22;8206;51.440;6.914;2023-02-24T03:13:17;3.70;99.90
16198;DHT22;8206;51.440;6.914;2023-02-24T03:15:45;3.80;1.00
16198;DHT22;8206;51.440;6.914;2023-02-24T03:18:16;3.80;99.90
16198;DHT22;8206;51.440;6.914;2023-02-24T03:20:49;3.80;66.00
16198;DHT22;8206;51.440;6.914;2023-02-24T03:23:19;3.80;1.00
16198;DHT22;8206;51.440;6.914;2023-02-24T03:25:53;3.80;1.00
16198;DHT22;8206;51.440;6.914;2023-02-24T03:28:28;3.80;1.00
16198;DHT22;8206;51.440;6.914;2023-02-24T03:31:04;3.70;1.00
16198;DHT22;8206;51.440;6.914;2023-02-24T03:33:35;3.80;1.00
16198;DHT22;8206;51.440;6.914;2023-02-24T03:36:06;3.80;1.00
16198;DHT22;8206;51.440;6.914;2023-02-24T03:38:34;3.80;1.00
16198;DHT22;8206;51.440;6.914;2023-02-24T03:41:03;3.90;1.00
16198;DHT22;8206;51.440;6.914;2023-02-24T03:43:33;3.90;1.00
16198;DHT22;8206;51.440;6.914;2023-02-24T03:46:01;3.80;1.00
16198;DHT22;8206;51.440;6.914;2023-02-24T03:48:31;3.80;1.00
16198;DHT22;8206;51.440;6.914;2023-02-24T03:51:00;3.80;1.00
16198;DHT22;8206;51.440;6.914;2023-02-24T03:53:39;3.70;1.00
16198;DHT22;8206;51.440;6.914;2023-02-24T03:56:21;3.70;1.00
16198;DHT22;8206;51.440;6.914;2023-02-24T03:59:01;3.70;1.00
16198;DHT22;8206;51.440;6.914;2023-02-24T04:01:35;3.60;1.00
16198;DHT22;8206;51.440;6.914;2023-02-24T04:04:14;3.60;1.00
16198;DHT22;8206;51.440;6.914;2023-02-24T04:06:43;3.50;1.00
16198;DHT22;8206;51.440;6.914;2023-02-24T04:09:20;3.50;99.10
16198;DHT22;8206;51.440;6.914;2023-02-24T04:11:54;3.60;1.00
16198;DHT22;8206;51.440;6.914;2023-02-24T04:14:27;3.60;1.00
16198;DHT22;8206;51.440;6.914;2023-02-24T04:16:57;3.70;1.00
16198;DHT22;8206;51.440;6.914;2023-02-24T04:19:27;3.70;1.00
16198;DHT22;8206;51.440;6.914;2023-02-24T04:21:55;3.80;1.00
16198;DHT22;8206;51.440;6.914;2023-02-24T04:24:27;3.80;1.00
16198;DHT22;8206;51.440;6.914;2023-02-24T04:26:57;3.80;99.90
16198;DHT22;8206;51.440;6.914;2023-02-24T04:29:28;3.80;1.00
16198;DHT22;8206;51.440;6.914;2023-02-24T04:32:02;3.90;54.80
16198;DHT22;8206;51.440;6.914;2023-02-24T04:34:30;3.80;39.90
16198;DHT22;8206;51.440;6.914;2023-02-24T04:36:58;3.90;99.90
16198;DHT22;8206;51.440;6.914;2023-02-24T04:39:29;3.90;99.90
16198;DHT22;8206;51.440;6.914;2023-02-24T04:41:56;3.90;1.20
16198;DHT22;8206;51.440;6.914;2023-02-24T04:44:24;3.90;99.90
16198;DHT22;8206;51.440;6.914;2023-02-24T04:46:52;3.90;1.00
16198;DHT22;8206;51.440;6.914;2023-02-24T04:49:20;3.90;1.00
16198;DHT22;8206;51.440;6.914;2023-02-24T04:51:47;4.00;1.00
16198;DHT22;8206;51.440;6.914;2023-02-24T04:54:15;4.00;1.00
16198;DHT22;8206;51.440;6.914;2023-02-24T04:56:44;4.10;1.00
16198;DHT22;8206;51.440;6.914;2023-02-24T04:59:12;4.10;1.00
16198;DHT22;8206;51.440;6.914;2023-02-24T05:01:40;4.10;1.00
16198;DHT22;8206;51.440;6.914;2023-02-24T05:04:09;4.10;1.00
16198;DHT22;8206;51.440;6.914;2023-02-24T05:06:36;4.10;1.00
16198;DHT22;8206;51.440;6.914;2023-02-24T05:09:07;4.10;1.00
16198;DHT22;8206;51.440;6.914;2023-02-24T05:11:39;4.10;1.00
16198;DHT22;8206;51.440;6.914;2023-02-24T05:14:08;4.20;1.00
16198;DHT22;8206;51.440;6.914;2023-02-24T05:16:39;4.20;1.00
16198;DHT22;8206;51.440;6.914;2023-02-24T05:19:07;4.20;1.00
16198;DHT22;8206;51.440;6.914;2023-02-24T05:21:51;4.20;1.00
16198;DHT22;8206;51.440;6.914;2023-02-24T05:24:18;4.20;1.00
16198;DHT22;8206;51.440;6.914;2023-02-24T05:26:44;4.20;1.00
16198;DHT22;8206;51.440;6.914;2023-02-24T05:29:13;4.20;1.00
16198;DHT22;8206;51.440;6.914;2023-02-24T05:31:40;4.20;1.00
16198;DHT22;8206;51.440;6.914;2023-02-24T05:34:07;4.30;1.00
16198;DHT22;8206;51.440;6.914;2023-02-24T05:36:35;4.30;1.00
16198;DHT22;8206;51.440;6.914;2023-02-24T05:39:03;4.30;1.00
16198;DHT22;8206;51.440;6.914;2023-02-24T05:41:33;4.30;1.00
16198;DHT22;8206;51.440;6.914;2023-02-24T05:44:02;4.30;1.00
16198;DHT22;8206;51.440;6.914;2023-02-24T05:46:36;4.20;1.00
16198;DHT22;8206;51.440;6.914;2023-02-24T05:49:05;4.20;1.00
16198;DHT22;8206;51.440;6.914;2023-02-24T05:51:34;4.20;1.00
16198;DHT22;8206;51.440;6.914;2023-02-24T05:54:02;4.10;1.00
16198;DHT22;8206;51.440;6.914;2023-02-24T05:56:29;4.20;1.00
16198;DHT22;8206;51.440;6.914;2023-02-24T05:58:58;4.20;1.00
16198;DHT22;8206;51.440;6.914;2023-02-24T06:01:27;4.10;1.00
16198;DHT22;8206;51.440;6.914;2023-02-24T06:03:58;4.10;1.00
16198;DHT22;8206;51.440;6.914;2023-02-24T06:06:31;4.10;1.00
16198;DHT22;8206;51.440;6.914;2023-02-24T06:08:59;4.10;1.00
16198;DHT22;8206;51.440;6.914;2023-02-24T06:11:31;4.00;1.00
16198;DHT22;8206;51.440;6.914;2023-02-24T06:13:58;4.00;1.00
16198;DHT22;8206;51.440;6.914;2023-02-24T06:16:25;4.10;1.00
16198;DHT22;8206;51.440;6.914;2023-02-24T06:18:52;4.00;1.00
16198;DHT22;8206;51.440;6.914;2023-02-24T06:21:20;4.10;1.00
16198;DHT22;8206;51.440;6.914;2023-02-24T06:23:46;4.00;1.00
16198;DHT22;8206;51.440;6.914;2023-02-24T06:26:13;4.10;1.00
16198;DHT22;8206;51.440;6.914;2023-02-24T06:28:44;4.00;1.00
16198;DHT22;8206;51.440;6.914;2023-02-24T06:31:12;4.10;1.00
16198;DHT22;8206;51.440;6.914;2023-02-24T06:33:39;4.10;1.00
16198;DHT22;8206;51.440;6.914;2023-02-24T06:36:07;4.00;1.00
16198;DHT22;8206;51.440;6.914;2023-02-24T06:38:35;4.00;1.00
16198;DHT22;8206;51.440;6.914;2023-02-24T06:41:04;4.00;1.00
16198;DHT22;8206;51.440;6.914;2023-02-24T06:43:35;4.00;1.00
16198;DHT22;8206;51.440;6.914;2023-02-24T06:46:03;3.90;1.00
16198;DHT22;8206;51.440;6.914;2023-02-24T06:48:31;3.90;1.00
16198;DHT22;8206;51.440;6.914;2023-02-24T06:51:03;3.90;1.00
16198;DHT22;8206;51.440;6.914;2023-02-24T06:53:30;3.80;1.00
16198;DHT22;8206;51.440;6.914;2023-02-24T06:56:03;3.80;1.00
16198;DHT22;8206;51.440;6.914;2023-02-24T06:58:33;3.90;1.00
16198;DHT22;8206;51.440;6.914;2023-02-24T07:01:00;3.90;1.00
16198;DHT22;8206;51.440;6.914;2023-02-24T07:03:29;3.90;1.00
16198;DHT22;8206;51.440;6.914;2023-02-24T07:06:04;4.00;1.00
16198;DHT22;8206;51.440;6.914;2023-02-24T07:08:45;3.90;1.00
16198;DHT22;8206;51.440;6.914;2023-02-24T07:11:13;4.00;1.00
16198;DHT22;8206;51.440;6.914;2023-02-24T07:13:42;4.10;1.00
16198;DHT22;8206;51.440;6.914;2023-02-24T07:16:10;4.00;1.00
16198;DHT22;8206;51.440;6.914;2023-02-24T07:18:41;4.00;1.00
16198;DHT22;8206;51.440;6.914;2023-02-24T07:21:09;4.10;1.00
16198;DHT22;8206;51.440;6.914;2023-02-24T07:23:37;4.10;1.00
16198;DHT22;8206;51.440;6.914;2023-02-24T07:26:09;4.20;1.00
16198;DHT22;8206;51.440;6.914;2023-02-24T07:28:39;4.20;1.00
16198;DHT22;8206;51.440;6.914;2023-02-24T07:31:06;4.30;1.00
16198;DHT22;8206;51.440;6.914;2023-02-24T07:33:34;4.30;1.00
16198;DHT22;8206;51.440;6.914;2023-02-24T07:36:02;4.40;1.00
16198;DHT22;8206;51.440;6.914;2023-02-24T07:38:34;4.30;1.00
16198;DHT22;8206;51.440;6.914;2023-02-24T07:41:01;4.40;1.00
16198;DHT22;8206;51.440;6.914;2023-02-24T07:43:28;4.40;1.00
16198;DHT22;8206;51.440;6.914;2023-02-24T07:45:56;4.40;1.00
16198;DHT22;8206;51.440;6.914;2023-02-24T07:48:23;4.40;1.00
16198;DHT22;8206;51.440;6.914;2023-02-24T07:50:50;4.40;1.00
16198;DHT22;8206;51.440;6.914;2023-02-24T07:53:17;4.40;1.00
16198;DHT22;8206;51.440;6.914;2023-02-24T07:55:44;4.50;1.00
16198;DHT22;8206;51.440;6.914;2023-02-24T07:58:11;4.50;1.00
16198;DHT22;8206;51.440;6.914;2023-02-24T08:00:38;4.60;1.00
16198;DHT22;8206;51.440;6.914;2023-02-24T08:03:26;4.60;1.00
16198;DHT22;8206;51.440;6.914;2023-02-24T08:05:55;4.60;1.00
16198;DHT22;8206;51.440;6.914;2023-02-24T08:08:24;4.60;1.00
16198;DHT22;8206;51.440;6.914;2023-02-24T08:10:51;4.60;1.00
16198;DHT22;8206;51.440;6.914;2023-02-24T08:13:28;4.70;1.00
16198;DHT22;8206;51.440;6.914;2023-02-24T08:16:05;4.70;1.00
16198;DHT22;8206;51.440;6.914;2023-02-24T08:18:33;4.70;1.00
16198;DHT22;8206;51.440;6.914;2023-02-24T08:21:02;4.70;1.00
16198;DHT22;8206;51.440;6.914;2023-02-24T08:23:29;4.70;1.00
16198;DHT22;8206;51.440;6.914;2023-02-24T08:26:01;4.80;1.00
16198;DHT22;8206;51.440;6.914;2023-02-24T08:28:36;4.80;1.00
16198;DHT22;8206;51.440;6.914;2023-02-24T08:31:04;4.80;1.00
16198;DHT22;8206;51.440;6.914;2023-02-24T08:33:31;4.80;1.00
16198;DHT22;8206;51.440;6.914;2023-02-24T08:35:59;4.80;1.00
16198;DHT22;8206;51.440;6.914;2023-02-24T08:38:26;4.80;1.00
16198;DHT22;8206;51.440;6.914;2023-02-24T08:41:04;4.80;1.00
16198;DHT22;8206;51.440;6.914;2023-02-24T08:43:37;4.80;1.00
16198;DHT22;8206;51.440;6.914;2023-02-24T08:46:14;4.80;1.00
16198;DHT22;8206;51.440;6.914;2023-02-24T08:48:44;4.80;1.00
16198;DHT22;8206;51.440;6.914;2023-02-24T08:51:16;4.80;1.00
16198;DHT22;8206;51.440;6.914;2023-02-24T08:53:47;4.90;1.00
16198;DHT22;8206;51.440;6.914;2023-02-24T08:56:18;4.90;1.00
16198;DHT22;8206;51.440;6.914;2023-02-24T08:58:51;5.00;1.00
16198;DHT22;8206;51.440;6.914;2023-02-24T09:01:24;5.10;1.00
16198;DHT22;8206;51.440;6.914;2023-02-24T09:03:53;5.20;1.00
16198;DHT22;8206;51.440;6.914;2023-02-24T09:06:25;5.30;1.00
16198;DHT22;8206;51.440;6.914;2023-02-24T09:08:54;5.30;1.00
16198;DHT22;8206;51.440;6.914;2023-02-24T09:11:42;5.40;1.00
16198;DHT22;8206;51.440;6.914;2023-02-24T09:14:12;5.50;1.00
16198;DHT22;8206;51.440;6.914;2023-02-24T09:16:43;5.50;1.00
16198;DHT22;8206;51.440;6.914;2023-02-24T09:19:28;5.60;1.00
16198;DHT22;8206;51.440;6.914;2023-02-24T09:22:29;5.60;1.00
16198;DHT22;8206;51.440;6.914;2023-02-24T09:25:08;5.60;1.00
16198;DHT22;8206;51.440;6.914;2023-02-24T09:27:47;5.60;1.00
16198;DHT22;8206;51.440;6.914;2023-02-24T09:30:18;5.60;1.00
16198;DHT22;8206;51.440;6.914;2023-02-24T09:33:04;5.50;1.00
16198;DHT22;8206;51.440;6.914;2023-02-24T09:35:31;5.50;1.00
16198;DHT22;8206;51.440;6.914;2023-02-24T09:38:02;5.50;1.00
16198;DHT22;8206;51.440;6.914;2023-02-24T09:40:32;5.70;1.00
16198;DHT22;8206;51.440;6.914;2023-02-24T09:43:10;5.80;1.00
16198;DHT22;8206;51.440;6.914;2023-02-24T09:45:46;5.80;1.00
16198;DHT22;8206;51.440;6.914;2023-02-24T09:48:23;6.00;1.00
16198;DHT22;8206;51.440;6.914;2023-02-24T09:50:54;6.00;1.00
16198;DHT22;8206;51.440;6.914;2023-02-24T09:53:31;6.00;1.00
16198;DHT22;8206;51.440;6.914;2023-02-24T09:56:10;6.00;1.00
16198;DHT22;8206;51.440;6.914;2023-02-24T09:58:42;5.90;1.00
16198;DHT22;8206;51.440;6.914;2023-02-24T10:01:33;5.90;1.00
16198;DHT22;8206;51.440;6.914;2023-02-24T10:04:19;5.90;1.00
16198;DHT22;8206;51.440;6.914;2023-02-24T10:07:01;5.80;1.00
16198;DHT22;8206;51.440;6.914;2023-02-24T10:09:33;5.90;1.00
16198;DHT22;8206;51.440;6.914;2023-02-24T10:12:05;5.90;1.00
16198;DHT22;8206;51.440;6.914;2023-02-24T10:14:42;5.80;1.00
16198;DHT22;8206;51.440;6.914;2023-02-24T10:17:14;5.60;1.00
16198;DHT22;8206;51.440;6.914;2023-02-24T10:19:56;5.50;1.00
16198;DHT22;8206;51.440;6.914;2023-02-24T10:22:41;5.60;1.00
16198;DHT22;8206;51.440;6.914;2023-02-24T10:25:41;5.60;1.00
16198;DHT22;8206;51.440;6.914;2023-02-24T10:28:17;5.60;1.00
16198;DHT22;8206;51.440;6.914;2023-02-24T10:30:53;5.60;1.00
16198;DHT22;8206;51.440;6.914;2023-02-24T10:33:33;5.50;1.00
16198;DHT22;8206;51.440;6.914;2023-02-24T10:36:08;5.50;1.00
16198;DHT22;8206;51.440;6.914;2023-02-24T10:38:36;5.50;1.00
16198;DHT22;8206;51.440;6.914;2023-02-24T10:41:08;5.50;1.00
16198;DHT22;8206;51.440;6.914;2023-02-24T10:43:35;5.50;1.00
16198;DHT22;8206;51.440;6.914;2023-02-24T10:46:20;5.40;1.00
16198;DHT22;8206;51.440;6.914;2023-02-24T10:48:51;5.40;1.00
16198;DHT22;8206;51.440;6.914;2023-02-24T10:51:29;5.50;1.00
16198;DHT22;8206;51.440;6.914;2023-02-24T10:54:06;5.50;1.00
16198;DHT22;8206;51.440;6.914;2023-02-24T10:56:49;5.40;1.00
16198;DHT22;8206;51.440;6.914;2023-02-24T10:59:42;5.40;1.00
16198;DHT22;8206;51.440;6.914;2023-02-24T11:02:28;5.40;1.00
16198;DHT22;8206;51.440;6.914;2023-02-24T11:05:21;5.40;1.00
16198;DHT22;8206;51.440;6.914;2023-02-24T11:08:09;5.40;1.00
16198;DHT22;8206;51.440;6.914;2023-02-24T11:10:41;5.40;1.00
16198;DHT22;8206;51.440;6.914;2023-02-24T11:13:25;5.40;1.00
16198;DHT22;8206;51.440;6.914;2023-02-24T11:16:10;5.40;1.00
16198;DHT22;8206;51.440;6.914;2023-02-24T11:18:54;5.30;1.00
16198;DHT22;8206;51.440;6.914;2023-02-24T11:21:24;5.30;1.00
16198;DHT22;8206;51.440;6.914;2023-02-24T11:23:55;5.30;1.00
16198;DHT22;8206;51.440;6.914;2023-02-24T11:26:25;5.20;1.00
16198;DHT22;8206;51.440;6.914;2023-02-24T11:29:10;5.00;1.00
16198;DHT22;8206;51.440;6.914;2023-02-24T11:31:55;5.10;1.00
16198;DHT22;8206;51.440;6.914;2023-02-24T11:34:32;5.20;1.00
16198;DHT22;8206;51.440;6.914;2023-02-24T11:37:11;5.30;1.00
16198;DHT22;8206;51.440;6.914;2023-02-24T11:39:49;5.30;1.00
16198;DHT22;8206;51.440;6.914;2023-02-24T11:42:21;5.20;1.00
16198;DHT22;8206;51.440;6.914;2023-02-24T11:44:55;5.20;1.00
16198;DHT22;8206;51.440;6.914;2023-02-24T11:47:28;5.20;1.00
16198;DHT22;8206;51.440;6.914;2023-02-24T11:50:05;5.10;1.00
16198;DHT22;8206;51.440;6.914;2023-02-24T11:52:37;5.00;1.00
16198;DHT22;8206;51.440;6.914;2023-02-24T11:55:14;5.00;1.00
16198;DHT22;8206;51.440;6.914;2023-02-24T11:57:48;5.00;1.00
16198;DHT22;8206;51.440;6.914;2023-02-24T12:00:21;5.00;1.00
16198;DHT22;8206;51.440;6.914;2023-02-24T12:02:53;5.00;1.00
16198;DHT22;8206;51.440;6.914;2023-02-24T12:05:25;5.10;1.00
16198;DHT22;8206;51.440;6.914;2023-02-24T12:07:54;5.00;1.00
16198;DHT22;8206;51.440;6.914;2023-02-24T12:10:26;4.90;1.00
16198;DHT22;8206;51.440;6.914;2023-02-24T12:12:59;4.90;1.00
16198;DHT22;8206;51.440;6.914;2023-02-24T12:15:34;4.90;1.00
16198;DHT22;8206;51.440;6.914;2023-02-24T12:18:12;5.00;1.00
16198;DHT22;8206;51.440;6.914;2023-02-24T12:20:44;4.90;1.00
16198;DHT22;8206;51.440;6.914;2023-02-24T12:23:15;4.90;1.00
16198;DHT22;8206;51.440;6.914;2023-02-24T12:26:03;4.90;1.00
16198;DHT22;8206;51.440;6.914;2023-02-24T12:28:53;4.80;1.00
16198;DHT22;8206;51.440;6.914;2023-02-24T12:31:31;4.80;1.00
16198;DHT22;8206;51.440;6.914;2023-02-24T12:34:06;4.80;1.00
16198;DHT22;8206;51.440;6.914;2023-02-24T12:39:44;4.80;1.00
16198;DHT22;8206;51.440;6.914;2023-02-24T12:42:20;4.70;1.00
16198;DHT22;8206;51.440;6.914;2023-02-24T12:44:57;4.70;1.00
16198;DHT22;8206;51.440;6.914;2023-02-24T12:47:34;4.80;1.00
16198;DHT22;8206;51.440;6.914;2023-02-24T12:50:23;4.80;1.00
16198;DHT22;8206;51.440;6.914;2023-02-24T12:52:57;4.80;1.00
16198;DHT22;8206;51.440;6.914;2023-02-24T12:55:29;4.70;1.00
16198;DHT22;8206;51.440;6.914;2023-02-24T12:58:07;4.60;1.00
16198;DHT22;8206;51.440;6.914;2023-02-24T13:00:42;4.60;1.00
16198;DHT22;8206;51.440;6.914;2023-02-24T13:03:24;4.60;1.00
16198;DHT22;8206;51.440;6.914;2023-02-24T13:06:01;4.50;1.00
16198;DHT22;8206;51.440;6.914;2023-02-24T13:08:40;4.50;1.00
16198;DHT22;8206;51.440;6.914;2023-02-24T13:11:15;4.60;1.00
16198;DHT22;8206;51.440;6.914;2023-02-24T13:13:46;4.60;1.00
16198;DHT22;8206;51.440;6.914;2023-02-24T13:16:26;4.60;1.00
16198;DHT22;8206;51.440;6.914;2023-02-24T13:19:05;4.60;1.00
16198;DHT22;8206;51.440;6.914;2023-02-24T13:21:32;4.60;1.00
16198;DHT22;8206;51.440;6.914;2023-02-24T13:24:01;4.50;1.00
16198;DHT22;8206;51.440;6.914;2023-02-24T13:26:29;4.60;1.00
16198;DHT22;8206;51.440;6.914;2023-02-24T13:29:01;4.50;1.00
16198;DHT22;8206;51.440;6.914;2023-02-24T13:31:43;4.50;1.00
16198;DHT22;8206;51.440;6.914;2023-02-24T13:34:30;4.50;1.00
16198;DHT22;8206;51.440;6.914;2023-02-24T13:36:57;4.50;1.00
16198;DHT22;8206;51.440;6.914;2023-02-24T13:39:31;4.50;1.00
16198;DHT22;8206;51.440;6.914;2023-02-24T13:42:04;4.60;1.00
16198;DHT22;8206;51.440;6.914;2023-02-24T13:44:31;4.70;1.00
16198;DHT22;8206;51.440;6.914;2023-02-24T13:50:20;4.70;1.00
16198;DHT22;8206;51.440;6.914;2023-02-24T13:53:09;4.70;1.00
16198;DHT22;8206;51.440;6.914;2023-02-24T13:55:57;4.70;1.00
16198;DHT22;8206;51.440;6.914;2023-02-24T14:01:27;4.70;1.00
16198;DHT22;8206;51.440;6.914;2023-02-24T14:04:05;4.80;1.00
16198;DHT22;8206;51.440;6.914;2023-02-24T14:06:45;4.80;1.00
16198;DHT22;8206;51.440;6.914;2023-02-24T14:09:16;4.90;1.00
16198;DHT22;8206;51.440;6.914;2023-02-24T14:11:49;4.80;1.00
16198;DHT22;8206;51.440;6.914;2023-02-24T14:14:17;4.80;99.90
16198;DHT22;8206;51.440;6.914;2023-02-24T14:16:47;4.70;1.00
16198;DHT22;8206;51.440;6.914;2023-02-24T14:19:15;4.80;1.00
16198;DHT22;8206;51.440;6.914;2023-02-24T14:21:49;4.80;99.90
16198;DHT22;8206;51.440;6.914;2023-02-24T14:24:16;4.80;1.00
16198;DHT22;8206;51.440;6.914;2023-02-24T14:26:45;4.80;1.00
16198;DHT22;8206;51.440;6.914;2023-02-24T14:29:14;4.80;1.00
16198;DHT22;8206;51.440;6.914;2023-02-24T14:31:46;4.80;99.90
16198;DHT22;8206;51.440;6.914;2023-02-24T14:34:17;4.80;99.90
16198;DHT22;8206;51.440;6.914;2023-02-24T14:36:46;4.80;99.90
16198;DHT22;8206;51.440;6.914;2023-02-24T14:39:16;4.90;1.00
16198;DHT22;8206;51.440;6.914;2023-02-24T14:41:44;4.90;27.30
16198;DHT22;8206;51.440;6.914;2023-02-24T14:44:18;5.00;1.00
16198;DHT22;8206;51.440;6.914;2023-02-24T14:46:46;5.00;1.00
16198;DHT22;8206;51.440;6.914;2023-02-24T14:49:18;4.90;1.00
16198;DHT22;8206;51.440;6.914;2023-02-24T14:51:47;5.00;1.00
16198;DHT22;8206;51.440;6.914;2023-02-24T14:54:19;5.00;99.90
16198;DHT22;8206;51.440;6.914;2023-02-24T14:56:46;5.10;1.00
16198;DHT22;8206;51.440;6.914;2023-02-24T14:59:17;5.10;1.00
16198;DHT22;8206;51.440;6.914;2023-02-24T15:01:47;5.30;1.00
16198;DHT22;8206;51.440;6.914;2023-02-24T15:04:24;5.50;1.00
16198;DHT22;8206;51.440;6.914;2023-02-24T15:06:53;5.60;99.90
16198;DHT22;8206;51.440;6.914;2023-02-24T15:09:21;5.50;99.90
16198;DHT22;8206;51.440;6.914;2023-02-24T15:11:49;5.40;99.90
16198;DHT22;8206;51.440;6.914;2023-02-24T15:14:20;5.40;99.90
16198;DHT22;8206;51.440;6.914;2023-02-24T15:16:50;5.40;1.00
16198;DHT22;8206;51.440;6.914;2023-02-24T15:19:24;5.40;1.00
16198;DHT22;8206;51.440;6.914;2023-02-24T15:21:53;5.40;1.00
16198;DHT22;8206;51.440;6.914;2023-02-24T15:24:25;5.40;1.00
16198;DHT22;8206;51.440;6.914;2023-02-24T15:26:54;5.40;1.00
16198;DHT22;8206;51.440;6.914;2023-02-24T15:29:23;5.40;99.90
16198;DHT22;8206;51.440;6.914;2023-02-24T15:31:52;5.40;42.80
16198;DHT22;8206;51.440;6.914;2023-02-24T15:34:22;5.40;1.00
16198;DHT22;8206;51.440;6.914;2023-02-24T15:36:53;5.40;1.00
16198;DHT22;8206;51.440;6.914;2023-02-24T15:39:22;5.40;99.90
16198;DHT22;8206;51.440;6.914;2023-02-24T15:41:51;5.50;1.00
16198;DHT22;8206;51.440;6.914;2023-02-24T15:44:24;5.50;1.00
16198;DHT22;8206;51.440;6.914;2023-02-24T15:46:51;5.60;99.90
16198;DHT22;8206;51.440;6.914;2023-02-24T15:49:18;5.60;1.00
16198;DHT22;8206;51.440;6.914;2023-02-24T15:51:47;5.70;1.00
16198;DHT22;8206;51.440;6.914;2023-02-24T15:54:18;5.60;99.90
16198;DHT22;8206;51.440;6.914;2023-02-24T15:56:45;5.60;78.10
16198;DHT22;8206;51.440;6.914;2023-02-24T15:59:14;5.60;1.00
16198;DHT22;8206;51.440;6.914;2023-02-24T16:01:41;5.50;99.90
16198;DHT22;8206;51.440;6.914;2023-02-24T16:04:08;5.50;99.90
16198;DHT22;8206;51.440;6.914;2023-02-24T16:06:36;5.50;99.90
16198;DHT22;8206;51.440;6.914;2023-02-24T16:09:06;5.50;99.90
16198;DHT22;8206;51.440;6.914;2023-02-24T16:11:37;5.50;1.00
16198;DHT22;8206;51.440;6.914;2023-02-24T16:14:05;5.50;99.90
16198;DHT22;8206;51.440;6.914;2023-02-24T16:16:32;5.50;1.00
16198;DHT22;8206;51.440;6.914;2023-02-24T16:18:58;5.50;1.00
16198;DHT22;8206;51.440;6.914;2023-02-24T16:21:25;5.50;99.90
16198;DHT22;8206;51.440;6.914;2023-02-24T16:23:52;5.50;99.90
16198;DHT22;8206;51.440;6.914;2023-02-24T16:26:19;5.50;99.90
16198;DHT22;8206;51.440;6.914;2023-02-24T16:28:51;5.50;99.90
16198;DHT22;8206;51.440;6.914;2023-02-24T16:31:18;5.50;99.90
16198;DHT22;8206;51.440;6.914;2023-02-24T16:33:45;5.60;99.90
16198;DHT22;8206;51.440;6.914;2023-02-24T16:36:12;5.60;99.90
16198;DHT22;8206;51.440;6.914;2023-02-24T16:38:41;5.60;99.90
16198;DHT22;8206;51.440;6.914;2023-02-24T16:41:11;5.60;99.90
16198;DHT22;8206;51.440;6.914;2023-02-24T16:43:37;5.60;99.90
16198;DHT22;8206;51.440;6.914;2023-02-24T16:46:12;5.60;99.90
16198;DHT22;8206;51.440;6.914;2023-02-24T16:48:39;5.60;99.90
16198;DHT22;8206;51.440;6.914;2023-02-24T16:51:07;5.60;99.90
16198;DHT22;8206;51.440;6.914;2023-02-24T16:53:36;5.60;99.90
16198;DHT22;8206;51.440;6.914;2023-02-24T16:56:03;5.50;99.90
16198;DHT22;8206;51.440;6.914;2023-02-24T16:58:30;5.50;99.90
16198;DHT22;8206;51.440;6.914;2023-02-24T17:00:58;5.50;1.00
16198;DHT22;8206;51.440;6.914;2023-02-24T17:03:32;5.50;99.90